createdAt,value
2022-08-02T00:05:02.429Z,24
2022-08-02T00:10:14.569Z,24
2022-08-02T00:15:26.733Z,24
2022-08-02T00:20:38.778Z,24
2022-08-02T00:25:56.389Z,24
2022-08-02T00:31:10.009Z,24
2022-08-02T00:36:22.168Z,24
2022-08-02T00:41:34.388Z,24
2022-08-02T00:46:46.605Z,24
2022-08-02T00:51:58.784Z,24
2022-08-02T00:57:11.174Z,24
2022-08-02T01:02:23.426Z,23
2022-08-02T01:07:35.645Z,24
2022-08-02T01:12:47.786Z,24
2022-08-02T01:18:00.046Z,23
2022-08-02T01:23:12.215Z,23
2022-08-02T01:28:24.554Z,23
2022-08-02T01:33:36.794Z,23
2022-08-02T01:38:49.056Z,23
2022-08-02T01:44:01.135Z,23
2022-08-02T01:49:13.574Z,23
2022-08-02T01:54:25.599Z,23
2022-08-02T01:59:37.753Z,23
2022-08-02T02:04:50.424Z,23
2022-08-02T02:10:02.855Z,23
2022-08-02T02:15:15.985Z,23
2022-08-02T02:20:27.975Z,23
2022-08-02T02:25:47.374Z,23
2022-08-02T02:30:59.283Z,23
2022-08-02T02:36:11.403Z,23
2022-08-02T02:41:23.385Z,23
2022-08-02T02:46:35.264Z,23
2022-08-02T02:51:47.385Z,23
2022-08-02T02:56:59.674Z,23
2022-08-02T03:02:12.661Z,22
2022-08-02T03:07:25.693Z,22
2022-08-02T03:12:37.605Z,22
2022-08-02T03:17:49.584Z,22
2022-08-02T03:23:01.894Z,22
2022-08-02T03:28:13.995Z,22
2022-08-02T03:33:26.163Z,22
2022-08-02T03:38:38.275Z,22
2022-08-02T03:43:50.446Z,22
2022-08-02T03:49:02.748Z,22
2022-08-02T03:54:14.916Z,22
2022-08-02T03:59:34.495Z,22
2022-08-02T04:04:49.826Z,22
2022-08-02T04:10:01.595Z,22
2022-08-02T04:15:13.516Z,22
2022-08-02T04:20:25.856Z,22
2022-08-02T04:25:42.737Z,22
2022-08-02T04:30:56.777Z,22
2022-08-02T04:36:08.938Z,22
2022-08-02T04:41:21.018Z,22
2022-08-02T04:46:33.292Z,22
2022-08-02T04:51:45.589Z,22
2022-08-02T04:56:57.983Z,22
2022-08-02T05:02:11.338Z,22
2022-08-02T05:07:24.233Z,22
2022-08-02T05:12:36.649Z,22
2022-08-02T05:17:49.658Z,22
2022-08-02T05:23:01.894Z,22
2022-08-02T05:28:14.359Z,22
2022-08-02T05:33:26.748Z,22
2022-08-02T05:38:39.705Z,23
2022-08-02T05:43:58.223Z,23
2022-08-02T05:49:10.760Z,22
2022-08-02T05:54:26.242Z,23
2022-08-02T05:59:38.699Z,23
2022-08-02T06:04:51.245Z,23
2022-08-02T06:10:04.730Z,23
2022-08-02T06:15:17.203Z,23
2022-08-02T06:20:29.823Z,24
2022-08-02T06:25:52.135Z,24
2022-08-02T06:31:02.501Z,24
2022-08-02T06:36:17.901Z,24
2022-08-02T06:41:30.319Z,25
2022-08-02T06:47:14.050Z,26
2022-08-02T06:52:30.679Z,26
2022-08-02T06:57:41.642Z,26
2022-08-02T07:02:54.352Z,26
2022-08-02T07:08:07.225Z,27
2022-08-02T07:13:20.436Z,27
2022-08-02T07:18:32.984Z,27
2022-08-02T07:23:45.506Z,27
2022-08-02T07:28:58.065Z,27
2022-08-02T07:34:10.817Z,27
2022-08-02T07:44:33.931Z,27
2022-08-02T07:49:46.655Z,27
2022-08-02T07:54:59.231Z,27
2022-08-02T08:00:11.936Z,27
2022-08-02T08:05:24.737Z,27
2022-08-02T08:10:37.317Z,27
2022-08-02T08:15:53.162Z,27
2022-08-02T08:21:04.975Z,28
2022-08-02T08:26:17.424Z,28
2022-08-02T08:31:30.235Z,28
2022-08-02T08:36:42.848Z,28
2022-08-02T08:41:55.644Z,28
2022-08-02T08:47:11.917Z,28
2022-08-02T08:52:23.427Z,28
2022-08-02T08:57:35.788Z,28
2022-08-02T09:02:48.456Z,29
2022-08-02T09:08:00.869Z,29
2022-08-02T09:13:46.517Z,29
2022-08-02T09:18:54.338Z,29
2022-08-02T09:24:06.780Z,29
2022-08-02T09:29:21.998Z,30
2022-08-02T09:34:33.977Z,30
2022-08-02T09:39:50.277Z,30
2022-08-02T09:45:10.987Z,30
2022-08-02T09:50:22.998Z,30
2022-08-02T09:55:35.478Z,30
2022-08-02T10:00:54.979Z,31
2022-08-02T10:06:07.357Z,31
2022-08-02T10:11:19.802Z,30
2022-08-02T10:16:32.489Z,31
2022-08-02T10:21:47.329Z,31
2022-08-02T10:26:59.286Z,31
2022-08-02T10:32:12.734Z,31
2022-08-02T10:37:27.290Z,32
2022-08-02T10:42:39.987Z,32
2022-08-02T10:47:53.900Z,32
2022-08-02T10:53:05.973Z,32
2022-08-02T10:58:18.520Z,32
2022-08-02T11:03:31.216Z,32
2022-08-02T11:08:54.138Z,32
2022-08-02T11:14:06.972Z,32
2022-08-02T11:19:19.879Z,33
2022-08-02T11:24:32.927Z,33
2022-08-02T11:29:46.210Z,35
2022-08-02T11:35:01.044Z,37
2022-08-02T11:40:20.599Z,38
2022-08-02T11:45:36.583Z,39
2022-08-02T11:50:48.925Z,39
2022-08-02T11:56:02.417Z,40
2022-08-02T12:11:39.968Z,40
2022-08-02T12:16:52.593Z,40
2022-08-02T12:22:05.738Z,41
2022-08-02T12:32:29.787Z,40
2022-08-02T12:42:53.269Z,39
2022-08-02T12:48:06.277Z,40
2022-08-02T12:53:19.116Z,41
2022-08-02T13:04:16.700Z,40
2022-08-02T13:14:42.950Z,39
2022-08-02T13:19:59.888Z,40
2022-08-02T13:25:13.910Z,40
2022-08-02T13:30:27.350Z,41
2022-08-02T13:51:15.498Z,38
2022-08-02T13:56:36.686Z,39
2022-08-02T14:17:19.235Z,39
2022-08-02T14:38:03.860Z,36
2022-08-02T14:43:20.035Z,37
2022-08-02T14:48:31.870Z,38
2022-08-02T14:54:03.684Z,38
2022-08-02T14:59:20.094Z,38
2022-08-02T15:04:55.501Z,38
2022-08-02T15:15:15.100Z,38
2022-08-02T15:25:42.168Z,36
2022-08-02T15:36:08.351Z,36
2022-08-02T15:41:20.671Z,37
2022-08-02T15:46:33.213Z,37
2022-08-02T15:56:56.347Z,36
2022-08-02T16:07:19.393Z,36
2022-08-02T16:12:33.515Z,36
2022-08-02T16:33:17.719Z,35
2022-08-02T16:59:14.826Z,33
2022-08-02T17:04:29.042Z,33
2022-08-02T17:10:09.059Z,33
2022-08-02T17:25:52.530Z,33
2022-08-02T17:36:14.106Z,33
2022-08-02T17:46:38.355Z,33
2022-08-02T17:52:53.685Z,33
2022-08-02T18:08:24.400Z,33
2022-08-02T18:13:44.375Z,33
2022-08-02T18:24:12.790Z,32
2022-08-02T18:29:39.190Z,32
2022-08-02T18:45:20.742Z,31
2022-08-02T18:50:32.395Z,31
2022-08-02T18:56:04.592Z,31
2022-08-02T19:01:33.925Z,31
2022-08-02T19:07:08.776Z,31
2022-08-02T19:17:57.673Z,30
2022-08-02T19:23:06.526Z,30
2022-08-02T19:28:27.771Z,30
2022-08-02T19:34:08.675Z,30
2022-08-02T19:39:27.486Z,29
2022-08-02T19:44:46.626Z,29
2022-08-02T19:50:02.807Z,29
2022-08-02T19:56:03.403Z,29
2022-08-02T20:01:28.377Z,29
2022-08-02T20:06:56.914Z,28
2022-08-02T20:12:11.110Z,29
2022-08-02T20:17:23.769Z,29
2022-08-02T20:22:44.246Z,28
2022-08-02T20:28:03.452Z,28
2022-08-02T20:33:24.482Z,28
2022-08-02T20:38:37.119Z,28
2022-08-02T20:43:49.469Z,28
2022-08-02T20:49:25.140Z,28
2022-08-02T20:54:52.189Z,28
2022-08-02T21:00:06.218Z,28
2022-08-02T21:05:44.134Z,28
2022-08-02T21:11:14.702Z,27
2022-08-02T21:16:31.010Z,27
2022-08-02T21:21:46.500Z,27
2022-08-02T21:26:58.234Z,27
2022-08-02T21:32:11.464Z,27
2022-08-02T21:37:45.258Z,27
2022-08-02T21:42:54.093Z,27
2022-08-02T21:48:13.148Z,27
2022-08-02T21:53:43.373Z,27
2022-08-02T21:59:27.386Z,27
2022-08-02T22:09:49.663Z,27
2022-08-02T22:15:03.975Z,27
2022-08-02T22:20:21.804Z,26
2022-08-02T22:25:38.057Z,26
2022-08-02T22:30:54.025Z,26
2022-08-02T22:36:11.909Z,26
2022-08-02T22:41:24.498Z,26
2022-08-02T22:46:37.477Z,26
2022-08-02T22:51:54.049Z,26
2022-08-02T22:57:11.753Z,26
2022-08-02T23:02:28.130Z,26
2022-08-02T23:07:45.158Z,26
2022-08-02T23:12:57.564Z,25
2022-08-02T23:18:09.986Z,26
2022-08-02T23:23:22.235Z,26
2022-08-02T23:28:34.354Z,25
2022-08-02T23:34:05.262Z,25
2022-08-02T23:39:18.261Z,25
2022-08-02T23:44:30.240Z,25
2022-08-02T23:49:42.694Z,25
2022-08-02T23:54:55.034Z,25
